sensor_id;sensor_type;location;lat;lon;timestamp;P1;durP1;ratioP1;P2;durP2;ratioP2
76208;SDS011;64990;51.698;-0.292;2023-04-15T00:01:19;12.98;;;6.18;;
76208;SDS011;64990;51.698;-0.292;2023-04-15T00:03:45;11.68;;;6.82;;
76208;SDS011;64990;51.698;-0.292;2023-04-15T00:06:11;12.07;;;8.18;;
76208;SDS011;64990;51.698;-0.292;2023-04-15T00:08:38;19.40;;;10.32;;
76208;SDS011;64990;51.698;-0.292;2023-04-15T00:11:04;15.68;;;9.18;;
76208;SDS011;64990;51.698;-0.292;2023-04-15T00:13:30;13.10;;;8.20;;
76208;SDS011;64990;51.698;-0.292;2023-04-15T00:15:58;16.50;;;8.75;;
76208;SDS011;64990;51.698;-0.292;2023-04-15T00:18:24;18.83;;;9.43;;
76208;SDS011;64990;51.698;-0.292;2023-04-15T00:20:50;19.75;;;10.07;;
76208;SDS011;64990;51.698;-0.292;2023-04-15T00:23:16;17.33;;;9.32;;
76208;SDS011;64990;51.698;-0.292;2023-04-15T00:25:43;12.63;;;8.05;;
76208;SDS011;64990;51.698;-0.292;2023-04-15T00:28:09;16.73;;;7.57;;
76208;SDS011;64990;51.698;-0.292;2023-04-15T00:30:35;15.43;;;9.43;;
76208;SDS011;64990;51.698;-0.292;2023-04-15T00:33:01;13.65;;;8.30;;
76208;SDS011;64990;51.698;-0.292;2023-04-15T00:35:27;12.75;;;7.55;;
76208;SDS011;64990;51.698;-0.292;2023-04-15T00:37:56;34.90;;;9.93;;
76208;SDS011;64990;51.698;-0.292;2023-04-15T00:40:22;26.88;;;8.40;;
76208;SDS011;64990;51.698;-0.292;2023-04-15T00:42:48;12.57;;;7.07;;
76208;SDS011;64990;51.698;-0.292;2023-04-15T00:45:14;20.25;;;8.68;;
76208;SDS011;64990;51.698;-0.292;2023-04-15T00:47:41;13.05;;;8.20;;
76208;SDS011;64990;51.698;-0.292;2023-04-15T00:50:08;19.52;;;8.75;;
76208;SDS011;64990;51.698;-0.292;2023-04-15T00:52:34;12.48;;;7.57;;
76208;SDS011;64990;51.698;-0.292;2023-04-15T00:55:00;8.02;;;6.75;;
76208;SDS011;64990;51.698;-0.292;2023-04-15T00:57:26;10.00;;;6.60;;
76208;SDS011;64990;51.698;-0.292;2023-04-15T00:59:54;9.25;;;6.07;;
76208;SDS011;64990;51.698;-0.292;2023-04-15T01:02:20;11.07;;;6.70;;
76208;SDS011;64990;51.698;-0.292;2023-04-15T01:04:47;8.88;;;6.35;;
76208;SDS011;64990;51.698;-0.292;2023-04-15T01:07:13;8.38;;;5.80;;
76208;SDS011;64990;51.698;-0.292;2023-04-15T01:09:39;10.40;;;6.05;;
76208;SDS011;64990;51.698;-0.292;2023-04-15T01:12:06;9.75;;;7.03;;
76208;SDS011;64990;51.698;-0.292;2023-04-15T01:14:32;11.18;;;5.55;;
76208;SDS011;64990;51.698;-0.292;2023-04-15T01:16:59;8.10;;;5.32;;
76208;SDS011;64990;51.698;-0.292;2023-04-15T01:19:25;9.25;;;5.75;;
76208;SDS011;64990;51.698;-0.292;2023-04-15T01:21:51;11.40;;;6.18;;
76208;SDS011;64990;51.698;-0.292;2023-04-15T01:24:17;7.57;;;4.90;;
76208;SDS011;64990;51.698;-0.292;2023-04-15T01:26:44;7.35;;;5.03;;
76208;SDS011;64990;51.698;-0.292;2023-04-15T01:29:10;8.65;;;4.63;;
76208;SDS011;64990;51.698;-0.292;2023-04-15T01:31:37;8.40;;;4.00;;
76208;SDS011;64990;51.698;-0.292;2023-04-15T01:34:03;5.93;;;3.72;;
76208;SDS011;64990;51.698;-0.292;2023-04-15T01:36:29;8.98;;;4.18;;
76208;SDS011;64990;51.698;-0.292;2023-04-15T01:38:55;7.35;;;4.30;;
76208;SDS011;64990;51.698;-0.292;2023-04-15T01:41:25;5.63;;;3.72;;
76208;SDS011;64990;51.698;-0.292;2023-04-15T01:43:51;6.18;;;3.92;;
76208;SDS011;64990;51.698;-0.292;2023-04-15T01:46:17;6.55;;;3.90;;
76208;SDS011;64990;51.698;-0.292;2023-04-15T01:48:43;9.52;;;5.43;;
76208;SDS011;64990;51.698;-0.292;2023-04-15T01:51:09;7.05;;;4.18;;
76208;SDS011;64990;51.698;-0.292;2023-04-15T01:53:36;10.35;;;5.18;;
76208;SDS011;64990;51.698;-0.292;2023-04-15T01:56:02;6.38;;;4.35;;
76208;SDS011;64990;51.698;-0.292;2023-04-15T01:58:28;8.75;;;4.15;;
76208;SDS011;64990;51.698;-0.292;2023-04-15T02:00:54;5.72;;;3.90;;
76208;SDS011;64990;51.698;-0.292;2023-04-15T02:03:21;14.93;;;4.93;;
76208;SDS011;64990;51.698;-0.292;2023-04-15T02:05:47;5.40;;;4.60;;
76208;SDS011;64990;51.698;-0.292;2023-04-15T02:08:13;7.78;;;4.20;;
76208;SDS011;64990;51.698;-0.292;2023-04-15T02:10:39;5.20;;;4.15;;
76208;SDS011;64990;51.698;-0.292;2023-04-15T02:13:05;9.00;;;4.50;;
76208;SDS011;64990;51.698;-0.292;2023-04-15T02:15:31;5.70;;;4.03;;
76208;SDS011;64990;51.698;-0.292;2023-04-15T02:17:58;4.82;;;4.15;;
76208;SDS011;64990;51.698;-0.292;2023-04-15T02:20:25;11.65;;;4.15;;
76208;SDS011;64990;51.698;-0.292;2023-04-15T02:22:51;6.68;;;4.60;;
76208;SDS011;64990;51.698;-0.292;2023-04-15T02:25:17;7.57;;;5.15;;
76208;SDS011;64990;51.698;-0.292;2023-04-15T02:27:44;6.75;;;4.50;;
76208;SDS011;64990;51.698;-0.292;2023-04-15T02:30:10;7.18;;;4.70;;
76208;SDS011;64990;51.698;-0.292;2023-04-15T02:32:36;7.50;;;5.13;;
76208;SDS011;64990;51.698;-0.292;2023-04-15T02:35:03;5.68;;;4.78;;
76208;SDS011;64990;51.698;-0.292;2023-04-15T02:37:29;7.88;;;4.82;;
76208;SDS011;64990;51.698;-0.292;2023-04-15T02:39:56;6.85;;;4.95;;
76208;SDS011;64990;51.698;-0.292;2023-04-15T02:42:22;7.72;;;5.05;;
76208;SDS011;64990;51.698;-0.292;2023-04-15T02:44:51;8.10;;;5.60;;
76208;SDS011;64990;51.698;-0.292;2023-04-15T02:47:18;8.52;;;5.43;;
76208;SDS011;64990;51.698;-0.292;2023-04-15T02:49:45;10.13;;;6.15;;
76208;SDS011;64990;51.698;-0.292;2023-04-15T02:52:11;7.57;;;5.38;;
76208;SDS011;64990;51.698;-0.292;2023-04-15T02:54:37;8.60;;;5.68;;
76208;SDS011;64990;51.698;-0.292;2023-04-15T02:57:04;10.02;;;6.05;;
76208;SDS011;64990;51.698;-0.292;2023-04-15T02:59:30;9.50;;;6.75;;
76208;SDS011;64990;51.698;-0.292;2023-04-15T03:01:56;14.13;;;7.80;;
76208;SDS011;64990;51.698;-0.292;2023-04-15T03:04:26;13.40;;;8.20;;
76208;SDS011;64990;51.698;-0.292;2023-04-15T03:06:54;14.55;;;7.53;;
76208;SDS011;64990;51.698;-0.292;2023-04-15T03:09:20;17.30;;;7.97;;
76208;SDS011;64990;51.698;-0.292;2023-04-15T03:11:46;10.75;;;6.65;;
76208;SDS011;64990;51.698;-0.292;2023-04-15T03:14:12;10.00;;;6.47;;
76208;SDS011;64990;51.698;-0.292;2023-04-15T03:16:38;12.85;;;7.22;;
76208;SDS011;64990;51.698;-0.292;2023-04-15T03:19:04;10.02;;;6.47;;
76208;SDS011;64990;51.698;-0.292;2023-04-15T03:21:31;11.00;;;7.70;;
76208;SDS011;64990;51.698;-0.292;2023-04-15T03:23:57;12.02;;;7.15;;
76208;SDS011;64990;51.698;-0.292;2023-04-15T03:26:27;16.75;;;7.70;;
76208;SDS011;64990;51.698;-0.292;2023-04-15T03:28:53;14.85;;;8.05;;
76208;SDS011;64990;51.698;-0.292;2023-04-15T03:31:19;12.38;;;8.57;;
76208;SDS011;64990;51.698;-0.292;2023-04-15T03:33:45;9.88;;;7.45;;
76208;SDS011;64990;51.698;-0.292;2023-04-15T03:36:11;9.30;;;6.88;;
76208;SDS011;64990;51.698;-0.292;2023-04-15T03:38:37;17.02;;;7.85;;
76208;SDS011;64990;51.698;-0.292;2023-04-15T03:41:04;11.57;;;7.20;;
76208;SDS011;64990;51.698;-0.292;2023-04-15T03:43:30;14.23;;;8.70;;
76208;SDS011;64990;51.698;-0.292;2023-04-15T03:45:56;13.00;;;8.63;;
76208;SDS011;64990;51.698;-0.292;2023-04-15T03:48:22;16.38;;;9.13;;
76208;SDS011;64990;51.698;-0.292;2023-04-15T03:50:48;12.52;;;8.15;;
76208;SDS011;64990;51.698;-0.292;2023-04-15T03:53:14;13.52;;;8.43;;
76208;SDS011;64990;51.698;-0.292;2023-04-15T03:55:40;14.85;;;7.68;;
76208;SDS011;64990;51.698;-0.292;2023-04-15T03:58:06;15.05;;;9.35;;
76208;SDS011;64990;51.698;-0.292;2023-04-15T04:00:33;13.85;;;7.68;;
76208;SDS011;64990;51.698;-0.292;2023-04-15T04:02:59;16.73;;;7.38;;
76208;SDS011;64990;51.698;-0.292;2023-04-15T04:05:25;12.65;;;8.02;;
76208;SDS011;64990;51.698;-0.292;2023-04-15T04:07:51;19.25;;;10.18;;
76208;SDS011;64990;51.698;-0.292;2023-04-15T04:10:17;12.90;;;8.48;;
76208;SDS011;64990;51.698;-0.292;2023-04-15T04:12:43;20.05;;;9.80;;
76208;SDS011;64990;51.698;-0.292;2023-04-15T04:15:09;18.63;;;9.98;;
76208;SDS011;64990;51.698;-0.292;2023-04-15T04:17:36;16.50;;;8.90;;
76208;SDS011;64990;51.698;-0.292;2023-04-15T04:20:02;14.80;;;9.82;;
76208;SDS011;64990;51.698;-0.292;2023-04-15T04:22:29;17.20;;;9.52;;
76208;SDS011;64990;51.698;-0.292;2023-04-15T04:24:55;14.98;;;8.90;;
76208;SDS011;64990;51.698;-0.292;2023-04-15T04:27:23;15.20;;;8.73;;
76208;SDS011;64990;51.698;-0.292;2023-04-15T04:29:50;12.70;;;7.57;;
76208;SDS011;64990;51.698;-0.292;2023-04-15T04:32:16;10.13;;;7.20;;
76208;SDS011;64990;51.698;-0.292;2023-04-15T04:34:42;9.73;;;7.38;;
76208;SDS011;64990;51.698;-0.292;2023-04-15T04:37:08;15.23;;;8.05;;
76208;SDS011;64990;51.698;-0.292;2023-04-15T04:39:34;8.88;;;6.05;;
76208;SDS011;64990;51.698;-0.292;2023-04-15T04:42:00;10.40;;;7.05;;
76208;SDS011;64990;51.698;-0.292;2023-04-15T04:44:26;8.63;;;5.28;;
76208;SDS011;64990;51.698;-0.292;2023-04-15T04:46:52;6.57;;;4.90;;
76208;SDS011;64990;51.698;-0.292;2023-04-15T04:49:18;11.35;;;5.10;;
76208;SDS011;64990;51.698;-0.292;2023-04-15T04:51:44;7.18;;;5.03;;
76208;SDS011;64990;51.698;-0.292;2023-04-15T04:54:12;7.47;;;4.63;;
76208;SDS011;64990;51.698;-0.292;2023-04-15T04:56:38;8.73;;;3.60;;
76208;SDS011;64990;51.698;-0.292;2023-04-15T04:59:04;6.53;;;5.05;;
76208;SDS011;64990;51.698;-0.292;2023-04-15T05:01:31;7.63;;;4.47;;
76208;SDS011;64990;51.698;-0.292;2023-04-15T05:03:57;11.82;;;4.30;;
76208;SDS011;64990;51.698;-0.292;2023-04-15T05:06:23;7.03;;;4.03;;
76208;SDS011;64990;51.698;-0.292;2023-04-15T05:08:49;6.60;;;3.95;;
76208;SDS011;64990;51.698;-0.292;2023-04-15T05:11:15;10.27;;;6.35;;
76208;SDS011;64990;51.698;-0.292;2023-04-15T05:13:41;4.65;;;3.45;;
76208;SDS011;64990;51.698;-0.292;2023-04-15T05:16:07;8.88;;;4.18;;
76208;SDS011;64990;51.698;-0.292;2023-04-15T05:18:33;7.97;;;5.47;;
76208;SDS011;64990;51.698;-0.292;2023-04-15T05:20:59;6.90;;;3.83;;
76208;SDS011;64990;51.698;-0.292;2023-04-15T05:23:25;11.85;;;3.97;;
76208;SDS011;64990;51.698;-0.292;2023-04-15T05:25:51;13.05;;;3.85;;
76208;SDS011;64990;51.698;-0.292;2023-04-15T05:28:17;4.40;;;3.50;;
76208;SDS011;64990;51.698;-0.292;2023-04-15T05:30:43;6.70;;;4.15;;
76208;SDS011;64990;51.698;-0.292;2023-04-15T05:33:10;6.03;;;3.80;;
76208;SDS011;64990;51.698;-0.292;2023-04-15T05:35:36;8.13;;;3.70;;
76208;SDS011;64990;51.698;-0.292;2023-04-15T05:38:02;5.50;;;4.03;;
76208;SDS011;64990;51.698;-0.292;2023-04-15T05:40:29;7.22;;;4.32;;
76208;SDS011;64990;51.698;-0.292;2023-04-15T05:42:55;8.55;;;4.65;;
76208;SDS011;64990;51.698;-0.292;2023-04-15T05:45:21;4.82;;;4.00;;
76208;SDS011;64990;51.698;-0.292;2023-04-15T05:47:47;6.05;;;3.45;;
76208;SDS011;64990;51.698;-0.292;2023-04-15T05:50:18;9.63;;;3.90;;
76208;SDS011;64990;51.698;-0.292;2023-04-15T05:52:44;5.70;;;3.95;;
76208;SDS011;64990;51.698;-0.292;2023-04-15T05:55:10;6.68;;;3.63;;
76208;SDS011;64990;51.698;-0.292;2023-04-15T05:57:36;6.80;;;4.30;;
76208;SDS011;64990;51.698;-0.292;2023-04-15T06:00:03;8.15;;;5.30;;
76208;SDS011;64990;51.698;-0.292;2023-04-15T06:02:29;11.23;;;4.10;;
76208;SDS011;64990;51.698;-0.292;2023-04-15T06:04:55;6.70;;;4.70;;
76208;SDS011;64990;51.698;-0.292;2023-04-15T06:07:22;6.55;;;4.55;;
76208;SDS011;64990;51.698;-0.292;2023-04-15T06:09:48;7.30;;;4.85;;
76208;SDS011;64990;51.698;-0.292;2023-04-15T06:12:14;7.10;;;3.65;;
76208;SDS011;64990;51.698;-0.292;2023-04-15T06:14:41;15.98;;;5.65;;
76208;SDS011;64990;51.698;-0.292;2023-04-15T06:17:07;6.60;;;5.03;;
76208;SDS011;64990;51.698;-0.292;2023-04-15T06:19:33;5.97;;;4.28;;
76208;SDS011;64990;51.698;-0.292;2023-04-15T06:22:00;6.88;;;4.68;;
76208;SDS011;64990;51.698;-0.292;2023-04-15T06:24:26;7.35;;;5.43;;
76208;SDS011;64990;51.698;-0.292;2023-04-15T06:26:53;7.50;;;4.85;;
76208;SDS011;64990;51.698;-0.292;2023-04-15T06:29:19;10.52;;;5.32;;
76208;SDS011;64990;51.698;-0.292;2023-04-15T06:31:48;9.32;;;5.43;;
76208;SDS011;64990;51.698;-0.292;2023-04-15T06:34:14;9.60;;;5.40;;
76208;SDS011;64990;51.698;-0.292;2023-04-15T06:36:40;8.98;;;4.80;;
76208;SDS011;64990;51.698;-0.292;2023-04-15T06:39:06;7.65;;;5.97;;
76208;SDS011;64990;51.698;-0.292;2023-04-15T06:41:32;7.93;;;5.57;;
76208;SDS011;64990;51.698;-0.292;2023-04-15T06:43:59;8.48;;;5.88;;
76208;SDS011;64990;51.698;-0.292;2023-04-15T06:46:25;11.27;;;6.47;;
76208;SDS011;64990;51.698;-0.292;2023-04-15T06:48:51;8.80;;;5.50;;
76208;SDS011;64990;51.698;-0.292;2023-04-15T06:51:17;10.70;;;6.75;;
76208;SDS011;64990;51.698;-0.292;2023-04-15T06:53:43;13.07;;;5.60;;
76208;SDS011;64990;51.698;-0.292;2023-04-15T06:56:09;8.30;;;6.45;;
76208;SDS011;64990;51.698;-0.292;2023-04-15T06:58:35;10.55;;;6.40;;
76208;SDS011;64990;51.698;-0.292;2023-04-15T07:01:02;8.93;;;5.90;;
76208;SDS011;64990;51.698;-0.292;2023-04-15T07:03:29;11.55;;;6.15;;
76208;SDS011;64990;51.698;-0.292;2023-04-15T07:05:55;9.55;;;6.22;;
76208;SDS011;64990;51.698;-0.292;2023-04-15T07:08:21;12.93;;;6.28;;
76208;SDS011;64990;51.698;-0.292;2023-04-15T07:10:48;8.35;;;5.60;;
76208;SDS011;64990;51.698;-0.292;2023-04-15T07:13:14;14.73;;;6.32;;
76208;SDS011;64990;51.698;-0.292;2023-04-15T07:15:40;11.48;;;5.82;;
76208;SDS011;64990;51.698;-0.292;2023-04-15T07:18:07;11.45;;;6.20;;
76208;SDS011;64990;51.698;-0.292;2023-04-15T07:20:33;9.82;;;5.30;;
76208;SDS011;64990;51.698;-0.292;2023-04-15T07:23:00;9.32;;;5.95;;
76208;SDS011;64990;51.698;-0.292;2023-04-15T07:25:26;9.45;;;6.07;;
76208;SDS011;64990;51.698;-0.292;2023-04-15T07:27:52;10.82;;;5.50;;
76208;SDS011;64990;51.698;-0.292;2023-04-15T07:30:18;9.27;;;6.53;;
76208;SDS011;64990;51.698;-0.292;2023-04-15T07:32:44;8.90;;;6.10;;
76208;SDS011;64990;51.698;-0.292;2023-04-15T07:35:11;12.48;;;6.28;;
76208;SDS011;64990;51.698;-0.292;2023-04-15T07:37:37;16.00;;;5.85;;
76208;SDS011;64990;51.698;-0.292;2023-04-15T07:40:03;10.07;;;6.60;;
76208;SDS011;64990;51.698;-0.292;2023-04-15T07:42:31;15.30;;;6.32;;
76208;SDS011;64990;51.698;-0.292;2023-04-15T07:44:57;27.40;;;7.47;;
76208;SDS011;64990;51.698;-0.292;2023-04-15T07:47:24;15.45;;;6.47;;
76208;SDS011;64990;51.698;-0.292;2023-04-15T07:49:51;12.75;;;7.15;;
76208;SDS011;64990;51.698;-0.292;2023-04-15T07:52:17;20.60;;;8.18;;
76208;SDS011;64990;51.698;-0.292;2023-04-15T07:54:43;12.30;;;7.53;;
76208;SDS011;64990;51.698;-0.292;2023-04-15T07:57:10;14.45;;;6.18;;
76208;SDS011;64990;51.698;-0.292;2023-04-15T07:59:36;12.05;;;7.25;;
76208;SDS011;64990;51.698;-0.292;2023-04-15T08:02:02;21.13;;;7.35;;
76208;SDS011;64990;51.698;-0.292;2023-04-15T08:04:28;20.25;;;6.85;;
76208;SDS011;64990;51.698;-0.292;2023-04-15T08:06:54;8.10;;;6.03;;
76208;SDS011;64990;51.698;-0.292;2023-04-15T08:09:20;11.43;;;6.65;;
76208;SDS011;64990;51.698;-0.292;2023-04-15T08:11:47;16.05;;;7.25;;
76208;SDS011;64990;51.698;-0.292;2023-04-15T08:14:15;16.00;;;6.55;;
76208;SDS011;64990;51.698;-0.292;2023-04-15T08:16:41;10.45;;;6.07;;
76208;SDS011;64990;51.698;-0.292;2023-04-15T08:19:07;10.35;;;5.97;;
76208;SDS011;64990;51.698;-0.292;2023-04-15T08:21:33;7.75;;;5.18;;
76208;SDS011;64990;51.698;-0.292;2023-04-15T08:23:59;7.68;;;5.65;;
76208;SDS011;64990;51.698;-0.292;2023-04-15T08:26:25;14.65;;;7.68;;
76208;SDS011;64990;51.698;-0.292;2023-04-15T08:28:51;9.23;;;5.65;;
76208;SDS011;64990;51.698;-0.292;2023-04-15T08:31:18;11.88;;;4.70;;
76208;SDS011;64990;51.698;-0.292;2023-04-15T08:33:44;9.27;;;6.32;;
76208;SDS011;64990;51.698;-0.292;2023-04-15T08:36:10;13.48;;;6.35;;
76208;SDS011;64990;51.698;-0.292;2023-04-15T08:38:37;12.77;;;4.97;;
76208;SDS011;64990;51.698;-0.292;2023-04-15T08:41:10;15.82;;;6.57;;
76208;SDS011;64990;51.698;-0.292;2023-04-15T08:43:43;9.85;;;5.68;;
76208;SDS011;64990;51.698;-0.292;2023-04-15T08:46:11;10.73;;;6.10;;
76208;SDS011;64990;51.698;-0.292;2023-04-15T08:48:37;12.27;;;6.82;;
76208;SDS011;64990;51.698;-0.292;2023-04-15T08:51:05;11.20;;;6.13;;
76208;SDS011;64990;51.698;-0.292;2023-04-15T08:53:31;10.30;;;7.00;;
76208;SDS011;64990;51.698;-0.292;2023-04-15T08:55:57;8.68;;;6.20;;
76208;SDS011;64990;51.698;-0.292;2023-04-15T08:58:25;9.05;;;6.97;;
76208;SDS011;64990;51.698;-0.292;2023-04-15T09:00:51;9.43;;;6.40;;
76208;SDS011;64990;51.698;-0.292;2023-04-15T09:03:17;8.82;;;6.50;;
76208;SDS011;64990;51.698;-0.292;2023-04-15T09:05:43;8.25;;;5.65;;
76208;SDS011;64990;51.698;-0.292;2023-04-15T09:08:10;7.50;;;5.45;;
76208;SDS011;64990;51.698;-0.292;2023-04-15T09:10:36;9.82;;;6.90;;
76208;SDS011;64990;51.698;-0.292;2023-04-15T09:13:02;7.28;;;5.53;;
76208;SDS011;64990;51.698;-0.292;2023-04-15T09:15:28;14.25;;;7.25;;
76208;SDS011;64990;51.698;-0.292;2023-04-15T09:17:55;16.13;;;8.02;;
76208;SDS011;64990;51.698;-0.292;2023-04-15T09:20:21;11.40;;;6.93;;
76208;SDS011;64990;51.698;-0.292;2023-04-15T09:22:47;10.68;;;6.82;;
76208;SDS011;64990;51.698;-0.292;2023-04-15T09:27:47;14.15;;;7.38;;
76208;SDS011;64990;51.698;-0.292;2023-04-15T09:30:13;16.48;;;8.10;;
76208;SDS011;64990;51.698;-0.292;2023-04-15T09:32:53;11.52;;;7.97;;
76208;SDS011;64990;51.698;-0.292;2023-04-15T09:35:21;12.15;;;7.13;;
76208;SDS011;64990;51.698;-0.292;2023-04-15T09:37:48;12.98;;;6.85;;
76208;SDS011;64990;51.698;-0.292;2023-04-15T09:40:13;8.05;;;6.32;;
76208;SDS011;64990;51.698;-0.292;2023-04-15T09:42:53;12.02;;;6.55;;
76208;SDS011;64990;51.698;-0.292;2023-04-15T09:45:20;11.38;;;7.35;;
76208;SDS011;64990;51.698;-0.292;2023-04-15T09:47:46;11.23;;;6.78;;
76208;SDS011;64990;51.698;-0.292;2023-04-15T09:50:12;9.40;;;6.18;;
76208;SDS011;64990;51.698;-0.292;2023-04-15T09:52:42;11.48;;;7.20;;
76208;SDS011;64990;51.698;-0.292;2023-04-15T09:55:09;14.02;;;7.68;;
76208;SDS011;64990;51.698;-0.292;2023-04-15T09:57:36;13.07;;;6.40;;
76208;SDS011;64990;51.698;-0.292;2023-04-15T10:00:06;8.88;;;6.15;;
76208;SDS011;64990;51.698;-0.292;2023-04-15T10:02:34;10.60;;;7.28;;
76208;SDS011;64990;51.698;-0.292;2023-04-15T10:05:00;14.23;;;7.25;;
76208;SDS011;64990;51.698;-0.292;2023-04-15T10:07:27;16.70;;;5.95;;
76208;SDS011;64990;51.698;-0.292;2023-04-15T10:09:54;11.43;;;6.53;;
76208;SDS011;64990;51.698;-0.292;2023-04-15T10:12:20;9.32;;;6.15;;
76208;SDS011;64990;51.698;-0.292;2023-04-15T10:14:57;10.80;;;5.80;;
76208;SDS011;64990;51.698;-0.292;2023-04-15T10:17:23;8.05;;;5.63;;
76208;SDS011;64990;51.698;-0.292;2023-04-15T10:19:53;11.75;;;5.90;;
76208;SDS011;64990;51.698;-0.292;2023-04-15T10:22:20;11.63;;;7.13;;
76208;SDS011;64990;51.698;-0.292;2023-04-15T10:24:46;18.75;;;8.50;;
76208;SDS011;64990;51.698;-0.292;2023-04-15T10:27:14;12.63;;;5.97;;
76208;SDS011;64990;51.698;-0.292;2023-04-15T10:29:40;11.60;;;5.80;;
76208;SDS011;64990;51.698;-0.292;2023-04-15T10:32:06;12.23;;;6.93;;
76208;SDS011;64990;51.698;-0.292;2023-04-15T10:34:32;12.45;;;7.10;;
76208;SDS011;64990;51.698;-0.292;2023-04-15T10:37:02;19.02;;;7.88;;
76208;SDS011;64990;51.698;-0.292;2023-04-15T10:42:17;9.50;;;6.15;;
76208;SDS011;64990;51.698;-0.292;2023-04-15T10:44:50;9.25;;;6.20;;
76208;SDS011;64990;51.698;-0.292;2023-04-15T10:47:17;13.57;;;4.88;;
76208;SDS011;64990;51.698;-0.292;2023-04-15T10:52:14;12.80;;;8.70;;
76208;SDS011;64990;51.698;-0.292;2023-04-15T10:54:40;11.70;;;7.20;;
76208;SDS011;64990;51.698;-0.292;2023-04-15T10:57:08;8.90;;;6.20;;
76208;SDS011;64990;51.698;-0.292;2023-04-15T10:59:35;7.82;;;5.57;;
76208;SDS011;64990;51.698;-0.292;2023-04-15T11:02:02;10.48;;;6.88;;
76208;SDS011;64990;51.698;-0.292;2023-04-15T11:07:13;9.82;;;6.90;;
76208;SDS011;64990;51.698;-0.292;2023-04-15T11:09:39;13.98;;;7.40;;
76208;SDS011;64990;51.698;-0.292;2023-04-15T11:12:06;12.02;;;7.40;;
76208;SDS011;64990;51.698;-0.292;2023-04-15T11:14:32;12.52;;;6.90;;
76208;SDS011;64990;51.698;-0.292;2023-04-15T11:17:02;16.60;;;7.65;;
76208;SDS011;64990;51.698;-0.292;2023-04-15T11:19:35;11.10;;;7.15;;
76208;SDS011;64990;51.698;-0.292;2023-04-15T11:22:11;10.90;;;5.90;;
76208;SDS011;64990;51.698;-0.292;2023-04-15T11:24:45;17.45;;;6.60;;
76208;SDS011;64990;51.698;-0.292;2023-04-15T11:27:22;5.82;;;4.97;;
76208;SDS011;64990;51.698;-0.292;2023-04-15T11:29:48;7.25;;;5.45;;
76208;SDS011;64990;51.698;-0.292;2023-04-15T11:32:14;12.18;;;5.70;;
76208;SDS011;64990;51.698;-0.292;2023-04-15T11:34:40;28.65;;;7.15;;
76208;SDS011;64990;51.698;-0.292;2023-04-15T11:37:06;8.23;;;5.32;;
76208;SDS011;64990;51.698;-0.292;2023-04-15T11:39:33;13.40;;;5.63;;
76208;SDS011;64990;51.698;-0.292;2023-04-15T11:41:59;12.43;;;5.68;;
76208;SDS011;64990;51.698;-0.292;2023-04-15T11:44:25;10.15;;;4.88;;
76208;SDS011;64990;51.698;-0.292;2023-04-15T11:46:51;9.52;;;5.65;;
76208;SDS011;64990;51.698;-0.292;2023-04-15T11:49:29;15.55;;;6.25;;
76208;SDS011;64990;51.698;-0.292;2023-04-15T11:51:57;14.40;;;5.25;;
76208;SDS011;64990;51.698;-0.292;2023-04-15T11:54:24;6.50;;;4.57;;
76208;SDS011;64990;51.698;-0.292;2023-04-15T11:56:50;11.68;;;5.13;;
76208;SDS011;64990;51.698;-0.292;2023-04-15T11:59:18;12.23;;;5.85;;
76208;SDS011;64990;51.698;-0.292;2023-04-15T12:01:44;19.05;;;4.70;;
76208;SDS011;64990;51.698;-0.292;2023-04-15T12:04:15;14.05;;;4.78;;
76208;SDS011;64990;51.698;-0.292;2023-04-15T12:06:43;7.18;;;4.65;;
76208;SDS011;64990;51.698;-0.292;2023-04-15T12:14:02;10.52;;;3.88;;
76208;SDS011;64990;51.698;-0.292;2023-04-15T12:16:29;13.00;;;4.53;;
76208;SDS011;64990;51.698;-0.292;2023-04-15T12:18:56;8.70;;;4.70;;
76208;SDS011;64990;51.698;-0.292;2023-04-15T12:21:26;11.63;;;4.80;;
76208;SDS011;64990;51.698;-0.292;2023-04-15T12:26:26;6.40;;;4.20;;
76208;SDS011;64990;51.698;-0.292;2023-04-15T12:29:06;8.00;;;4.38;;
76208;SDS011;64990;51.698;-0.292;2023-04-15T12:31:35;7.95;;;3.78;;
76208;SDS011;64990;51.698;-0.292;2023-04-15T12:34:01;12.00;;;3.70;;
76208;SDS011;64990;51.698;-0.292;2023-04-15T12:36:28;5.78;;;3.50;;
76208;SDS011;64990;51.698;-0.292;2023-04-15T12:39:00;3.45;;;2.80;;
76208;SDS011;64990;51.698;-0.292;2023-04-15T12:41:26;9.65;;;4.15;;
76208;SDS011;64990;51.698;-0.292;2023-04-15T12:43:52;8.63;;;2.65;;
76208;SDS011;64990;51.698;-0.292;2023-04-15T12:46:18;13.38;;;4.35;;
76208;SDS011;64990;51.698;-0.292;2023-04-15T12:48:44;6.03;;;3.45;;
76208;SDS011;64990;51.698;-0.292;2023-04-15T12:51:10;5.93;;;2.08;;
76208;SDS011;64990;51.698;-0.292;2023-04-15T12:53:36;7.43;;;3.60;;
76208;SDS011;64990;51.698;-0.292;2023-04-15T12:56:02;8.27;;;3.03;;
76208;SDS011;64990;51.698;-0.292;2023-04-15T12:58:28;7.72;;;2.40;;
76208;SDS011;64990;51.698;-0.292;2023-04-15T13:00:54;8.88;;;3.42;;
76208;SDS011;64990;51.698;-0.292;2023-04-15T13:03:21;10.20;;;2.50;;
76208;SDS011;64990;51.698;-0.292;2023-04-15T13:05:47;8.02;;;2.45;;
76208;SDS011;64990;51.698;-0.292;2023-04-15T13:08:13;8.95;;;3.67;;
76208;SDS011;64990;51.698;-0.292;2023-04-15T13:10:39;16.35;;;3.78;;
76208;SDS011;64990;51.698;-0.292;2023-04-15T13:13:06;7.18;;;3.00;;
76208;SDS011;64990;51.698;-0.292;2023-04-15T13:15:33;7.85;;;3.25;;
76208;SDS011;64990;51.698;-0.292;2023-04-15T13:17:59;6.13;;;3.60;;
76208;SDS011;64990;51.698;-0.292;2023-04-15T13:20:25;9.25;;;3.00;;
76208;SDS011;64990;51.698;-0.292;2023-04-15T13:22:52;5.53;;;3.17;;
76208;SDS011;64990;51.698;-0.292;2023-04-15T13:25:18;6.85;;;3.28;;
76208;SDS011;64990;51.698;-0.292;2023-04-15T13:27:44;7.38;;;3.38;;
76208;SDS011;64990;51.698;-0.292;2023-04-15T13:30:11;11.52;;;4.28;;
76208;SDS011;64990;51.698;-0.292;2023-04-15T13:32:37;8.50;;;2.70;;
76208;SDS011;64990;51.698;-0.292;2023-04-15T13:35:03;9.98;;;3.75;;
76208;SDS011;64990;51.698;-0.292;2023-04-15T13:37:30;7.47;;;2.50;;
76208;SDS011;64990;51.698;-0.292;2023-04-15T13:39:56;15.00;;;3.65;;
76208;SDS011;64990;51.698;-0.292;2023-04-15T13:42:22;7.82;;;3.15;;
76208;SDS011;64990;51.698;-0.292;2023-04-15T13:44:48;6.90;;;3.08;;
76208;SDS011;64990;51.698;-0.292;2023-04-15T13:47:15;15.20;;;4.88;;
76208;SDS011;64990;51.698;-0.292;2023-04-15T13:49:42;3.38;;;2.90;;
76208;SDS011;64990;51.698;-0.292;2023-04-15T13:52:11;11.13;;;3.45;;
76208;SDS011;64990;51.698;-0.292;2023-04-15T13:54:37;7.95;;;2.20;;
76208;SDS011;64990;51.698;-0.292;2023-04-15T13:57:04;9.95;;;2.90;;
76208;SDS011;64990;51.698;-0.292;2023-04-15T13:59:31;5.75;;;2.92;;
76208;SDS011;64990;51.698;-0.292;2023-04-15T14:01:58;5.55;;;2.42;;
76208;SDS011;64990;51.698;-0.292;2023-04-15T14:04:25;4.97;;;2.35;;
76208;SDS011;64990;51.698;-0.292;2023-04-15T14:06:51;10.30;;;2.50;;
76208;SDS011;64990;51.698;-0.292;2023-04-15T14:09:17;2.95;;;1.90;;
76208;SDS011;64990;51.698;-0.292;2023-04-15T14:11:43;7.05;;;2.65;;
76208;SDS011;64990;51.698;-0.292;2023-04-15T14:14:09;6.57;;;2.88;;
76208;SDS011;64990;51.698;-0.292;2023-04-15T14:16:35;7.80;;;2.20;;
76208;SDS011;64990;51.698;-0.292;2023-04-15T14:19:01;6.68;;;2.83;;
76208;SDS011;64990;51.698;-0.292;2023-04-15T14:21:27;7.88;;;3.63;;
76208;SDS011;64990;51.698;-0.292;2023-04-15T14:23:55;5.57;;;2.75;;
76208;SDS011;64990;51.698;-0.292;2023-04-15T14:26:21;13.95;;;3.95;;
76208;SDS011;64990;51.698;-0.292;2023-04-15T14:28:47;6.00;;;2.63;;
76208;SDS011;64990;51.698;-0.292;2023-04-15T14:31:13;11.60;;;4.25;;
76208;SDS011;64990;51.698;-0.292;2023-04-15T14:33:40;6.53;;;3.47;;
76208;SDS011;64990;51.698;-0.292;2023-04-15T14:36:09;7.78;;;2.70;;
76208;SDS011;64990;51.698;-0.292;2023-04-15T14:38:35;8.38;;;4.88;;
76208;SDS011;64990;51.698;-0.292;2023-04-15T14:41:05;5.57;;;2.78;;
76208;SDS011;64990;51.698;-0.292;2023-04-15T14:43:32;6.43;;;2.67;;